Time;durP1;ratioP1;P1;durP2;ratioP2;P2;SDS_P1;SDS_P2;PMS_P1;PMS_P2;Temp;Humidity;BMP_temperature;BMP_pressure;BME280_temperature;BME280_humidity;BME280_pressure;Samples;Min_cycle;Max_cycle;Signal;HPM_P1;HPM_P2
2022/08/02 00:00:44;;;;;;;2.60;2.40;;;23.00;90.00;;;;;;5058569;28;20175;-90
2022/08/02 00:03:09;;;;;;;3.00;2.10;;;23.00;90.00;;;;;;5041410;28;20244;-92
2022/08/02 00:05:35;;;;;;;4.30;1.97;;;23.00;89.80;;;;;;5041575;28;20656;-91
2022/08/02 00:08:01;;;;;;;2.30;1.83;;;22.90;89.80;;;;;;5040776;28;20198;-93
2022/08/02 00:10:26;;;;;;;3.03;1.73;;;22.90;89.60;;;;;;5058224;28;20174;-91
2022/08/02 00:12:52;;;;;;;4.60;2.37;;;22.80;90.00;;;;;;5059265;28;20571;-92
2022/08/02 00:15:18;;;;;;;3.07;2.10;;;22.80;90.10;;;;;;5043009;28;20188;-91
2022/08/02 00:17:44;;;;;;;2.33;2.13;;;22.80;90.20;;;;;;5042611;28;20261;-92
2022/08/02 00:20:11;;;;;;;2.60;2.07;;;22.70;90.40;;;;;;5054075;28;20184;-91
2022/08/02 00:22:37;;;;;;;2.17;1.97;;;22.70;90.60;;;;;;5040390;28;20477;-93
2022/08/02 00:25:03;;;;;;;5.07;2.53;;;22.60;90.70;;;;;;5044599;28;20419;-93
2022/08/02 00:27:29;;;;;;;5.83;2.60;;;22.60;90.60;;;;;;5060280;28;20556;-93
2022/08/02 00:29:54;;;;;;;2.90;2.33;;;22.50;90.90;;;;;;5058517;28;20525;-91
2022/08/02 00:32:21;;;;;;;2.10;2.00;;;22.50;90.90;;;;;;5040555;28;20284;-92
2022/08/02 00:34:47;;;;;;;3.50;2.70;;;22.50;91.00;;;;;;5057919;28;20170;-93
2022/08/02 00:37:12;;;;;;;3.20;2.40;;;22.50;91.00;;;;;;5040491;28;20846;-91
2022/08/02 00:39:38;;;;;;;3.67;2.20;;;22.50;91.00;;;;;;5039597;28;20238;-91
2022/08/02 00:42:04;;;;;;;2.87;2.50;;;22.40;91.10;;;;;;5039522;28;20470;-91
2022/08/02 00:44:29;;;;;;;4.67;2.57;;;22.40;91.10;;;;;;5040215;28;20268;-92
2022/08/02 00:46:55;;;;;;;3.20;2.40;;;22.40;91.10;;;;;;5041530;28;20283;-91
2022/08/02 00:49:21;;;;;;;3.93;2.03;;;22.40;91.20;;;;;;5042025;28;20267;-92
2022/08/02 00:51:46;;;;;;;5.37;3.07;;;22.40;91.30;;;;;;5058287;28;20667;-93
2022/08/02 00:54:13;;;;;;;4.10;2.30;;;22.40;91.50;;;;;;5041812;28;20182;-92
2022/08/02 00:56:39;;;;;;;4.83;2.50;;;22.30;91.40;;;;;;5040892;28;20198;-93
2022/08/02 00:59:04;;;;;;;9.73;3.03;;;22.30;91.50;;;;;;5040348;28;20434;-90
2022/08/02 01:01:40;;;;;;;3.17;2.20;;;22.30;91.60;;;;;;5040583;28;20204;-91
2022/08/02 01:04:08;;;;;;;3.27;2.23;;;22.20;91.60;;;;;;5042359;28;20228;-93
2022/08/02 01:06:35;;;;;;;4.47;2.47;;;22.20;91.70;;;;;;5059268;28;20513;-91
2022/08/02 01:09:03;;;;;;;2.37;1.97;;;22.20;91.90;;;;;;5056437;28;20395;-92
2022/08/02 01:11:29;;;;;;;2.40;2.20;;;22.20;91.80;;;;;;5056066;28;20770;-92
2022/08/02 01:14:08;;;;;;;2.80;2.43;;;22.10;91.80;;;;;;5059164;28;20406;-91
2022/08/02 01:16:45;;;;;;;5.60;2.73;;;22.10;92.00;;;;;;5038916;28;20430;-92
2022/08/02 01:19:32;;;;;;;2.93;2.17;;;22.00;92.00;;;;;;5039654;28;20435;-93
2022/08/02 01:22:35;;;;;;;2.00;1.80;;;22.00;92.30;;;;;;5039209;28;20438;-93
2022/08/02 01:25:12;;;;;;;2.40;2.20;;;22.00;92.30;;;;;;5038824;28;20962;-91
2022/08/02 01:28:02;;;;;;;5.90;2.50;;;21.90;92.40;;;;;;5038767;28;20948;-92
2022/08/02 01:30:29;;;;;;;4.27;2.40;;;21.90;92.50;;;;;;5039509;28;20525;-92
2022/08/02 01:32:58;;;;;;;6.60;2.70;;;21.90;92.50;;;;;;5056923;28;20773;-91
2022/08/02 01:35:31;;;;;;;3.27;2.97;;;21.90;92.50;;;;;;5039584;28;20813;-91
2022/08/02 01:38:13;;;;;;;2.20;2.10;;;21.90;92.40;;;;;;5065560;28;20427;-90
2022/08/02 01:40:43;;;;;;;3.50;2.47;;;21.80;92.30;;;;;;5038457;28;20429;-91
2022/08/02 01:43:10;;;;;;;4.43;2.97;;;21.80;92.40;;;;;;5037822;28;20478;-92
2022/08/02 01:45:40;;;;;;;3.87;2.50;;;21.70;92.30;;;;;;5060269;28;20411;-93
2022/08/02 01:48:08;;;;;;;3.43;2.33;;;21.70;92.30;;;;;;5039641;28;20438;-91
2022/08/02 01:50:35;;;;;;;4.33;2.10;;;21.60;92.40;;;;;;5039693;28;20419;-92
2022/08/02 01:53:08;;;;;;;3.60;2.80;;;21.60;92.50;;;;;;5038746;28;20431;-93
2022/08/02 01:55:41;;;;;;;3.93;2.50;;;21.60;92.70;;;;;;5056981;28;20419;-93
2022/08/02 01:58:08;;;;;;;3.30;2.80;;;21.50;92.70;;;;;;5056583;28;20756;-93
2022/08/02 02:00:38;;;;;;;5.10;2.87;;;21.50;92.80;;;;;;5039030;28;20962;-91
2022/08/02 02:03:06;;;;;;;3.40;2.30;;;21.50;92.90;;;;;;5039470;28;20492;-93
2022/08/02 02:05:34;;;;;;;2.60;2.40;;;21.40;93.00;;;;;;5040344;28;20423;-91
2022/08/02 02:08:02;;;;;;;4.70;2.80;;;21.40;93.10;;;;;;5058081;28;20437;-91
2022/08/02 02:10:30;;;;;;;3.67;2.80;;;21.40;93.10;;;;;;5057398;28;20411;-92
2022/08/02 02:13:00;;;;;;;3.73;2.73;;;21.30;93.10;;;;;;5045961;28;20435;-91
2022/08/02 02:15:28;;;;;;;6.10;2.47;;;21.30;93.60;;;;;;5037324;28;20434;-90
2022/08/02 02:17:56;;;;;;;2.27;2.10;;;21.30;93.30;;;;;;5054975;28;20481;-92
2022/08/02 02:20:22;;;;;;;3.47;2.80;;;21.30;93.50;;;;;;5038162;28;20423;-93
2022/08/02 02:22:48;;;;;;;2.77;2.53;;;21.30;93.60;;;;;;5057878;28;20508;-93
2022/08/02 02:25:16;;;;;;;4.07;2.53;;;21.30;93.80;;;;;;5039162;28;20460;-93
2022/08/02 02:27:48;;;;;;;9.43;2.60;;;21.20;93.70;;;;;;5055306;28;20465;-93
2022/08/02 02:30:15;;;;;;;7.10;2.70;;;21.30;94.20;;;;;;5037932;28;20533;-92
2022/08/02 02:32:44;;;;;;;4.63;3.10;;;21.20;93.90;;;;;;5037828;28;20492;-93
2022/08/02 02:35:11;;;;;;;2.87;2.37;;;21.20;93.90;;;;;;5038804;28;20919;-93
2022/08/02 02:37:37;;;;;;;2.40;2.20;;;21.20;94.00;;;;;;5056241;28;20437;-91
2022/08/02 02:40:04;;;;;;;3.50;2.43;;;21.20;94.00;;;;;;5055947;28;20481;-91
2022/08/02 02:42:32;;;;;;;5.17;2.43;;;21.10;93.90;;;;;;5056844;28;20484;-92
2022/08/02 02:44:59;;;;;;;5.97;2.63;;;21.10;94.00;;;;;;5065454;28;20433;-92
2022/08/02 02:47:28;;;;;;;4.53;2.80;;;21.10;94.00;;;;;;5054839;28;20435;-91
2022/08/02 02:49:56;;;;;;;5.93;3.07;;;21.10;94.00;;;;;;5037943;28;20429;-92
2022/08/02 02:52:23;;;;;;;5.70;2.80;;;21.00;94.00;;;;;;5042618;28;20437;-92
2022/08/02 02:54:50;;;;;;;5.10;2.90;;;21.00;94.10;;;;;;5041397;28;20962;-91
2022/08/02 02:57:17;;;;;;;10.10;2.70;;;20.90;94.10;;;;;;5036900;28;20481;-91
2022/08/02 02:59:43;;;;;;;4.03;3.40;;;20.90;94.10;;;;;;5036780;28;20469;-92
2022/08/02 03:02:10;;;;;;;5.00;3.73;;;20.90;94.10;;;;;;5036817;28;20512;-93
2022/08/02 03:04:37;;;;;;;4.77;3.30;;;20.90;94.00;;;;;;5055572;28;20742;-92
2022/08/02 03:07:03;;;;;;;4.73;3.77;;;20.90;94.00;;;;;;5056326;28;20431;-90
2022/08/02 03:09:28;;;;;;;3.50;3.10;;;20.90;94.00;;;;;;5038282;28;20462;-90
2022/08/02 03:11:55;;;;;;;5.83;3.93;;;20.80;94.00;;;;;;5038050;28;20580;-93
2022/08/02 03:14:22;;;;;;;3.63;3.33;;;20.80;94.10;;;;;;5056586;28;20177;-91
2022/08/02 03:16:51;;;;;;;7.63;4.07;;;20.80;94.20;;;;;;5056737;28;20442;-92
2022/08/02 03:19:17;;;;;;;7.10;3.23;;;20.80;94.20;;;;;;5038867;28;20418;-92
2022/08/02 03:21:45;;;;;;;4.87;4.17;;;20.80;94.30;;;;;;5045079;28;20431;-92
2022/08/02 03:24:12;;;;;;;3.57;3.23;;;20.80;94.40;;;;;;5054500;28;20970;-92
2022/08/02 03:26:38;;;;;;;6.63;3.83;;;20.80;94.50;;;;;;5040084;28;20435;-90
2022/08/02 03:29:05;;;;;;;6.80;3.97;;;20.80;94.60;;;;;;5058269;28;20426;-90
2022/08/02 03:31:31;;;;;;;4.20;3.80;;;20.70;94.50;;;;;;5040796;28;20442;-91
2022/08/02 03:33:58;;;;;;;4.87;3.80;;;20.70;94.50;;;;;;5040394;28;20471;-91
2022/08/02 03:36:26;;;;;;;15.83;4.27;;;20.70;94.60;;;;;;5040943;28;20204;-93
2022/08/02 03:38:53;;;;;;;11.17;4.23;;;20.70;94.80;;;;;;5058795;28;20461;-91
2022/08/02 03:44:06;;;;;;;7.40;4.70;;;20.60;94.90;;;;;;5058367;28;20972;-90
2022/08/02 03:46:33;;;;;;;6.77;4.60;;;20.60;95.00;;;;;;5058604;28;20437;-92
2022/08/02 03:49:02;;;;;;;6.47;4.70;;;20.60;95.00;;;;;;5040924;28;20410;-91
2022/08/02 03:51:28;;;;;;;7.33;4.87;;;20.70;95.00;;;;;;5040394;28;20449;-90
2022/08/02 03:53:54;;;;;;;7.33;4.40;;;20.70;95.10;;;;;;5059047;28;20401;-90
2022/08/02 03:56:20;;;;;;;6.50;5.17;;;20.80;95.00;;;;;;5044021;28;20217;-89
2022/08/02 03:58:45;;;;;;;7.60;4.90;;;20.80;94.90;;;;;;5047359;28;20910;-90
2022/08/02 04:01:11;;;;;;;11.00;6.10;;;20.80;94.80;;;;;;5041238;28;20189;-92
2022/08/02 04:03:37;;;;;;;6.03;4.70;;;20.80;94.80;;;;;;5059633;28;20690;-89
2022/08/02 04:06:03;;;;;;;7.00;5.90;;;20.80;94.70;;;;;;5041434;28;20200;-91
2022/08/02 04:08:28;;;;;;;40.17;21.23;;;20.80;94.70;;;;;;5041082;28;20185;-91
2022/08/02 04:13:38;;;;;;;6.40;5.77;;;20.70;95.00;;;;;;5058197;28;20168;-91
2022/08/02 04:16:20;;;;;;;8.30;6.30;;;20.70;95.20;;;;;;5025446;28;20423;-90
2022/08/02 04:18:53;;;;;;;8.90;5.70;;;20.70;95.30;;;;;;5021014;28;20221;-91
2022/08/02 04:21:20;;;;;;;7.97;5.37;;;20.60;95.40;;;;;;5039682;28;20453;-92
2022/08/02 04:23:49;;;;;;;4.37;3.97;;;20.60;95.60;;;;;;5021291;28;20597;-92
2022/08/02 04:26:15;;;;;;;11.50;4.80;;;20.60;95.60;;;;;;5022148;28;20438;-91
2022/08/02 04:28:42;;;;;;;7.63;4.40;;;20.60;95.70;;;;;;5021475;28;20940;-92
2022/08/02 04:31:08;;;;;;;6.27;4.53;;;20.60;95.90;;;;;;5021030;28;20428;-91
2022/08/02 04:33:35;;;;;;;30.97;16.33;;;20.70;96.00;;;;;;5028525;28;20411;-91
2022/08/02 04:36:01;;;;;;;16.97;8.10;;;20.70;96.00;;;;;;5021231;28;20470;-93
2022/08/02 04:38:27;;;;;;;12.03;6.33;;;20.70;96.20;;;;;;5015399;28;20488;-91
2022/08/02 04:40:54;;;;;;;9.20;5.80;;;20.80;96.10;;;;;;5017747;28;20976;-92
2022/08/02 04:43:21;;;;;;;6.40;4.03;;;20.80;96.00;;;;;;5016360;28;20217;-91
2022/08/02 04:45:53;;;;;;;8.13;4.87;;;20.90;95.90;;;;;;5017039;28;20412;-93
2022/08/02 04:48:19;;;;;;;6.63;4.30;;;20.90;95.80;;;;;;5017259;28;20774;-91
2022/08/02 04:50:45;;;;;;;4.40;4.00;;;21.00;95.80;;;;;;5015977;28;20423;-93
2022/08/02 04:53:11;;;;;;;7.03;3.90;;;21.10;95.70;;;;;;5015855;28;20810;-93
2022/08/02 04:55:36;;;;;;;8.77;3.80;;;21.10;95.60;;;;;;5016474;28;20186;-91
2022/08/02 04:58:02;;;;;;;4.47;4.00;;;21.20;95.60;;;;;;5017243;28;20202;-91
2022/08/02 05:00:29;;;;;;;4.13;3.70;;;21.30;95.60;;;;;;5017797;28;20201;-92
2022/08/02 05:02:55;;;;;;;7.90;4.30;;;21.40;95.60;;;;;;5017340;28;20268;-92
2022/08/02 05:05:21;;;;;;;5.53;4.00;;;21.50;95.60;;;;;;5015542;28;20536;-93
2022/08/02 05:07:47;;;;;;;4.60;3.60;;;21.50;95.60;;;;;;5015912;28;21036;-93
2022/08/02 05:10:13;;;;;;;4.30;3.67;;;21.60;95.50;;;;;;4999557;28;20414;-90
2022/08/02 05:12:39;;;;;;;11.43;4.50;;;21.70;95.50;;;;;;4998210;28;20204;-93
2022/08/02 05:15:06;;;;;;;8.73;3.90;;;21.80;95.60;;;;;;5018246;28;20960;-91
2022/08/02 05:17:32;;;;;;;5.30;3.83;;;21.90;95.50;;;;;;5021588;28;20991;-93
2022/08/02 05:19:57;;;;;;;5.33;3.80;;;22.00;95.50;;;;;;5029456;28;20409;-90
2022/08/02 05:22:23;;;;;;;4.83;4.33;;;22.10;95.50;;;;;;5029423;28;20211;-93
2022/08/02 05:24:49;;;;;;;4.43;3.83;;;22.20;95.50;;;;;;5009149;28;20219;-91
2022/08/02 05:27:14;;;;;;;8.70;4.27;;;22.20;95.60;;;;;;4995709;28;20200;-90
2022/08/02 05:29:40;;;;;;;5.40;3.60;;;22.30;95.40;;;;;;4995358;28;20186;-90
2022/08/02 05:32:06;;;;;;;11.40;4.07;;;22.40;95.20;;;;;;4995733;28;20538;-91
2022/08/02 05:34:32;;;;;;;9.77;3.83;;;22.40;95.20;;;;;;4995555;28;20175;-91
2022/08/02 05:36:57;;;;;;;13.50;4.60;;;22.50;95.00;;;;;;5000863;28;20191;-93
2022/08/02 05:39:23;;;;;;;14.80;3.60;;;22.60;94.90;;;;;;5008218;28;20223;-93
2022/08/02 05:41:48;;;;;;;5.60;2.93;;;22.70;95.10;;;;;;5005578;28;20204;-91
2022/08/02 05:44:14;;;;;;;5.37;3.47;;;22.70;94.70;;;;;;5004608;28;20207;-90
2022/08/02 05:46:40;;;;;;;5.53;3.17;;;22.80;94.80;;;;;;5002877;28;20238;-93
2022/08/02 05:49:05;;;;;;;4.07;2.87;;;22.90;94.60;;;;;;5005113;28;20183;-92
2022/08/02 05:51:39;;;;;;;4.30;2.77;;;22.90;94.60;;;;;;5009358;28;20199;-91
2022/08/02 05:54:26;;;;;;;5.23;3.00;;;23.00;94.60;;;;;;5026206;28;20192;-91
2022/08/02 05:57:00;;;;;;;4.30;3.07;;;23.20;94.60;;;;;;4996582;28;20488;-93
2022/08/02 05:59:34;;;;;;;6.73;3.07;;;23.30;95.10;;;;;;5014195;28;20425;-91
2022/08/02 06:02:26;;;;;;;5.73;3.17;;;23.40;95.10;;;;;;5012622;28;20487;-91
2022/08/02 06:05:07;;;;;;;5.00;2.93;;;23.50;94.80;;;;;;5000178;28;20487;-92
2022/08/02 06:07:36;;;;;;;3.63;3.07;;;23.60;94.90;;;;;;5001273;28;20894;-90
2022/08/02 06:10:04;;;;;;;5.07;3.20;;;23.70;94.80;;;;;;5004569;28;20429;-91
2022/08/02 06:12:32;;;;;;;106.87;63.73;;;23.80;94.70;;;;;;5014511;28;20447;-91
2022/08/02 06:15:03;;;;;;;108.53;59.77;;;23.90;94.50;;;;;;5014052;28;20418;-92
2022/08/02 06:17:30;;;;;;;19.40;11.63;;;24.00;94.20;;;;;;5018310;28;20457;-89
2022/08/02 06:19:57;;;;;;;8.87;3.53;;;24.10;93.70;;;;;;5004253;28;20428;-91
2022/08/02 06:22:26;;;;;;;4.30;2.47;;;24.20;93.60;;;;;;4995276;28;20465;-92
2022/08/02 06:24:53;;;;;;;7.90;3.50;;;24.30;93.00;;;;;;4998419;28;20433;-90
2022/08/02 06:27:20;;;;;;;3.37;2.57;;;24.40;93.20;;;;;;5015505;28;20444;-92
2022/08/02 06:29:48;;;;;;;3.20;2.90;;;24.50;93.20;;;;;;5013485;28;20769;-93
2022/08/02 06:32:18;;;;;;;2.40;2.20;;;24.60;93.10;;;;;;4996838;28;20499;-91
2022/08/02 06:34:45;;;;;;;4.30;2.50;;;24.70;92.30;;;;;;5009227;28;20438;-93
2022/08/02 06:37:40;;;;;;;2.63;2.40;;;24.80;91.90;;;;;;5014441;28;20812;-93
2022/08/02 06:40:17;;;;;;;4.60;2.63;;;24.90;91.90;;;;;;5037551;28;20482;-91
2022/08/02 06:42:47;;;;;;;2.87;2.67;;;25.00;91.90;;;;;;5017919;28;21069;-93
2022/08/02 06:45:13;;;;;;;3.87;2.80;;;25.10;91.10;;;;;;5016355;28;20457;-93
2022/08/02 06:47:39;;;;;;;3.13;2.83;;;25.20;90.90;;;;;;5021347;28;20450;-92
2022/08/02 06:50:05;;;;;;;2.70;2.50;;;25.30;91.10;;;;;;5026676;28;20697;-91
2022/08/02 06:52:31;;;;;;;2.37;2.17;;;25.40;91.10;;;;;;5036525;28;20274;-91
2022/08/02 06:54:58;;;;;;;9.93;4.00;;;25.50;91.10;;;;;;5021113;28;20439;-90
2022/08/02 06:57:24;;;;;;;3.75;2.50;;;25.60;91.20;;;;;;5009140;28;20772;-93
2022/08/02 06:59:50;;;;;;;3.03;2.73;;;25.70;90.90;;;;;;5024295;28;20186;-93
2022/08/02 07:02:16;;;;;;;3.27;2.20;;;25.80;90.80;;;;;;5025861;28;20438;-93
2022/08/02 07:04:41;;;;;;;3.10;2.30;;;26.00;90.90;;;;;;5025273;28;20564;-93
2022/08/02 07:07:07;;;;;;;4.60;3.00;;;26.00;90.20;;;;;;5020789;28;20256;-93
2022/08/02 07:09:33;;;;;;;2.90;2.60;;;26.20;90.00;;;;;;5028111;28;20187;-93
2022/08/02 07:11:58;;;;;;;4.83;2.57;;;26.30;90.30;;;;;;5030286;28;20492;-91
2022/08/02 07:14:24;;;;;;;2.70;2.50;;;26.40;90.30;;;;;;5020674;28;20181;-90
2022/08/02 07:16:50;;;;;;;3.30;2.77;;;26.60;89.70;;;;;;5043719;28;20199;-91
2022/08/02 07:19:15;;;;;;;2.87;2.67;;;26.60;89.10;;;;;;5039665;28;20194;-91
2022/08/02 07:21:41;;;;;;;2.73;2.53;;;26.80;89.50;;;;;;5022748;28;20209;-94
2022/08/02 07:24:06;;;;;;;4.50;3.13;;;26.90;89.50;;;;;;5032560;28;20297;-93
2022/08/02 07:26:32;;;;;;;2.13;1.97;;;27.00;90.20;;;;;;5045712;28;20201;-90
2022/08/02 07:28:58;;;;;;;2.60;2.40;;;27.20;88.80;;;;;;5015831;28;20198;-93
2022/08/02 07:31:23;;;;;;;3.13;2.93;;;27.30;88.50;;;;;;5003811;28;20199;-93
2022/08/02 07:33:49;;;;;;;3.20;2.57;;;27.50;88.90;;;;;;5010971;28;20226;-91
2022/08/02 07:36:15;;;;;;;3.70;3.40;;;27.60;88.20;;;;;;5024480;28;20322;-93
2022/08/02 07:38:40;;;;;;;2.87;2.57;;;27.70;87.40;;;;;;5009064;28;20245;-93
2022/08/02 07:41:06;;;;;;;3.40;3.10;;;27.90;87.00;;;;;;5022858;28;20194;-92
2022/08/02 07:43:32;;;;;;;3.17;2.60;;;28.00;87.60;;;;;;4998328;28;20215;-92
2022/08/02 07:45:57;;;;;;;2.50;2.30;;;28.10;87.30;;;;;;5007623;28;20182;-91
2022/08/02 07:48:23;;;;;;;4.10;2.70;;;28.20;86.80;;;;;;5031325;28;20188;-91
2022/08/02 07:50:49;;;;;;;5.40;3.23;;;28.30;85.90;;;;;;5009392;28;20611;-93
2022/08/02 07:53:14;;;;;;;3.77;3.47;;;28.40;86.20;;;;;;4995334;28;20196;-91
2022/08/02 07:55:40;;;;;;;4.70;3.00;;;28.50;86.80;;;;;;5000772;28;20180;-91
2022/08/02 07:58:07;;;;;;;3.10;2.60;;;28.60;86.50;;;;;;4996802;28;20236;-94
2022/08/02 08:00:33;;;;;;;3.33;3.10;;;28.70;86.70;;;;;;5020361;28;20182;-93
2022/08/02 08:02:59;;;;;;;3.03;2.77;;;28.80;86.60;;;;;;5026509;28;20486;-91
2022/08/02 08:05:24;;;;;;;3.50;2.70;;;28.90;85.90;;;;;;5007550;28;20188;-92
2022/08/02 08:07:50;;;;;;;3.30;3.00;;;28.90;85.60;;;;;;5009803;28;20204;-91
2022/08/02 08:10:16;;;;;;;3.60;2.67;;;29.00;86.00;;;;;;5013470;28;20184;-91
2022/08/02 08:12:41;;;;;;;2.97;2.77;;;29.10;85.80;;;;;;5035170;28;20200;-93
2022/08/02 08:15:07;;;;;;;3.13;2.93;;;29.20;85.80;;;;;;5019897;28;20200;-93
2022/08/02 08:17:34;;;;;;;361.57;206.27;;;29.20;85.50;;;;;;5019959;28;20270;-93
2022/08/02 08:20:01;;;;;;;43.77;30.73;;;29.30;85.50;;;;;;5042374;28;20418;-90
2022/08/02 08:22:26;;;;;;;6.77;6.07;;;29.40;85.00;;;;;;5019141;28;20471;-92
2022/08/02 08:24:52;;;;;;;3.00;2.80;;;29.50;83.50;;;;;;5019373;28;20430;-90
2022/08/02 08:27:19;;;;;;;3.43;3.20;;;29.60;83.70;;;;;;5019775;28;20237;-92
2022/08/02 08:29:45;;;;;;;3.43;2.60;;;29.60;82.90;;;;;;5019625;28;20195;-90
2022/08/02 08:32:12;;;;;;;3.13;2.57;;;29.70;83.00;;;;;;5018132;28;20549;-92
2022/08/02 08:34:38;;;;;;;3.10;2.90;;;29.80;81.60;;;;;;5017591;28;20184;-90
2022/08/02 08:37:04;;;;;;;5.17;2.63;;;29.80;81.50;;;;;;5028506;28;20557;-92
2022/08/02 08:39:29;;;;;;;2.93;2.73;;;29.90;81.70;;;;;;5019919;28;20256;-92
2022/08/02 08:41:55;;;;;;;2.97;2.67;;;30.00;81.00;;;;;;5036937;28;20610;-91
2022/08/02 08:44:26;;;;;;;3.00;2.80;;;30.10;80.80;;;;;;5027892;28;20277;-89
2022/08/02 08:46:55;;;;;;;2.93;2.70;;;30.10;80.30;;;;;;5019062;28;20544;-90
2022/08/02 08:49:55;;;;;;;3.13;2.83;;;30.20;80.60;;;;;;5015339;28;20426;-89
2022/08/02 08:52:24;;;;;;;2.77;2.57;;;30.20;81.70;;;;;;4970731;28;20808;-89
2022/08/02 08:54:50;;;;;;;2.63;2.43;;;30.20;81.90;;;;;;5014988;28;20434;-92
2022/08/02 08:57:19;;;;;;;2.50;2.30;;;30.20;82.00;;;;;;5013275;28;20458;-92
2022/08/02 08:59:45;;;;;;;2.77;2.57;;;30.30;81.90;;;;;;5003069;28;20428;-90
2022/08/02 09:02:10;;;;;;;3.10;2.77;;;30.40;81.00;;;;;;5008364;28;20471;-93
2022/08/02 09:04:36;;;;;;;2.90;2.70;;;30.50;81.00;;;;;;5010800;28;20456;-89
2022/08/02 09:07:02;;;;;;;3.23;2.93;;;30.60;81.20;;;;;;5017658;28;20205;-93
2022/08/02 09:09:28;;;;;;;3.20;3.00;;;30.70;81.10;;;;;;5003386;28;20820;-92
2022/08/02 09:11:57;;;;;;;3.27;2.97;;;30.80;79.70;;;;;;5015945;28;20296;-91
2022/08/02 09:14:28;;;;;;;3.57;3.00;;;30.90;79.80;;;;;;5014967;28;20777;-90
2022/08/02 09:17:06;;;;;;;3.08;2.88;;;30.90;80.10;;;;;;5001795;28;20491;-90
2022/08/02 09:19:32;;;;;;;2.97;2.73;;;31.00;79.40;;;;;;4998256;28;20685;-91
2022/08/02 09:22:04;;;;;;;3.17;2.90;;;31.00;78.60;;;;;;5015219;28;20470;-92
2022/08/02 09:24:42;;;;;;;3.40;3.10;;;31.00;78.60;;;;;;5024218;28;20498;-91
2022/08/02 09:27:26;;;;;;;3.50;3.20;;;30.90;78.30;;;;;;5016693;28;20461;-90
2022/08/02 09:29:53;;;;;;;3.50;3.20;;;30.90;79.40;;;;;;5036109;28;20453;-93
2022/08/02 09:32:19;;;;;;;3.33;3.10;;;30.90;79.40;;;;;;5021444;28;20438;-91
2022/08/02 09:34:50;;;;;;;2.73;2.53;;;30.90;79.50;;;;;;5051489;28;20579;-93
2022/08/02 09:37:30;;;;;;;3.63;3.27;;;30.80;79.10;;;;;;5022377;28;20444;-92
2022/08/02 09:40:02;;;;;;;3.00;2.63;;;30.80;78.70;;;;;;5034815;28;20510;-90
2022/08/02 09:42:28;;;;;;;4.27;3.40;;;30.70;78.70;;;;;;5024041;28;20462;-92
2022/08/02 09:44:59;;;;;;;3.47;3.17;;;30.70;79.00;;;;;;5024448;28;20427;-91
2022/08/02 09:47:30;;;;;;;3.33;3.13;;;30.60;78.70;;;;;;5011351;28;20454;-94
2022/08/02 09:49:57;;;;;;;4.00;2.73;;;30.40;78.40;;;;;;5019765;28;20449;-91
2022/08/02 09:52:27;;;;;;;6.93;3.93;;;30.30;78.80;;;;;;5024236;28;20452;-93
2022/08/02 09:54:53;;;;;;;3.90;3.50;;;30.20;79.30;;;;;;5016060;28;20440;-94
2022/08/02 09:57:32;;;;;;;3.93;3.53;;;30.20;79.20;;;;;;5017095;28;20473;-91
2022/08/02 09:59:58;;;;;;;3.10;2.90;;;30.20;79.70;;;;;;5014865;28;20441;-93
2022/08/02 10:02:27;;;;;;;3.97;3.57;;;30.20;79.70;;;;;;5013462;28;20879;-93
2022/08/02 10:04:53;;;;;;;3.73;3.43;;;30.20;79.50;;;;;;5022773;28;20424;-93
2022/08/02 10:07:22;;;;;;;3.73;3.43;;;30.20;79.70;;;;;;5014764;28;20786;-92
2022/08/02 10:09:50;;;;;;;5.40;3.17;;;30.20;79.70;;;;;;5032175;28;20209;-92
2022/08/02 10:12:17;;;;;;;4.27;3.13;;;30.20;80.00;;;;;;5035902;28;20450;-93
2022/08/02 10:14:44;;;;;;;3.40;3.10;;;30.20;80.00;;;;;;5017121;28;21011;-91
2022/08/02 10:17:10;;;;;;;3.77;3.30;;;30.20;79.80;;;;;;5034685;28;20456;-92
2022/08/02 10:19:35;;;;;;;4.73;3.67;;;30.30;79.10;;;;;;5016970;28;20427;-92
2022/08/02 10:22:05;;;;;;;4.17;3.87;;;30.30;79.30;;;;;;5014510;28;20201;-92
2022/08/02 10:24:35;;;;;;;4.23;3.87;;;30.30;79.20;;;;;;5023669;28;20255;-93
2022/08/02 10:27:02;;;;;;;3.80;3.40;;;30.30;80.20;;;;;;5014923;28;20518;-92
2022/08/02 10:29:36;;;;;;;3.03;2.83;;;30.40;79.60;;;;;;5015246;28;21021;-92
2022/08/02 10:32:22;;;;;;;3.73;3.43;;;30.40;79.40;;;;;;5009632;28;20458;-92
2022/08/02 10:34:59;;;;;;;3.63;3.37;;;30.40;79.40;;;;;;5000568;28;20442;-93
2022/08/02 10:37:32;;;;;;;3.60;3.30;;;30.50;79.60;;;;;;5012619;28;20456;-92
2022/08/02 10:39:58;;;;;;;3.97;3.67;;;30.50;79.30;;;;;;5022974;28;20466;-93
2022/08/02 10:42:47;;;;;;;4.30;3.90;;;30.50;79.40;;;;;;5020744;28;20514;-93
2022/08/02 10:45:16;;;;;;;3.13;2.93;;;30.60;79.00;;;;;;5004305;28;20966;-92
2022/08/02 10:48:10;;;;;;;3.47;3.10;;;30.50;78.40;;;;;;5004138;28;20447;-93
2022/08/02 10:50:47;;;;;;;5.93;3.40;;;30.50;79.10;;;;;;5030393;28;20435;-96
2022/08/02 10:53:28;;;;;;;3.90;3.50;;;30.50;78.90;;;;;;5015705;28;21069;-91
2022/08/02 10:56:08;;;;;;;3.47;3.17;;;30.50;79.10;;;;;;5014806;28;20438;-96
2022/08/02 10:58:34;;;;;;;5.33;3.30;;;30.40;79.10;;;;;;5010457;28;20770;-96
2022/08/02 11:01:34;;;;;;;;;;;;;;;;;;;;;
2022/08/02 11:04:00;;;;;;;3.10;2.90;;;30.20;79.30;;;;;;5025270;28;20510;-94
2022/08/02 11:06:29;;;;;;;3.63;3.20;;;30.20;79.20;;;;;;5009016;28;20533;-90
2022/08/02 11:09:30;;;;;;;4.40;3.03;;;30.20;79.50;;;;;;5013173;28;20705;-94
2022/08/02 11:12:12;;;;;;;6.37;3.37;;;30.20;79.50;;;;;;5009699;28;20458;-90
2022/08/02 11:14:42;;;;;;;4.30;2.87;;;30.30;78.70;;;;;;5027035;28;20424;-92
2022/08/02 11:17:17;;;;;;;3.40;3.10;;;30.30;79.00;;;;;;5025834;28;20456;-88
2022/08/02 11:20:10;;;;;;;5.00;3.00;;;30.30;79.20;;;;;;5021927;28;20434;-90
2022/08/02 11:22:37;;;;;;;3.30;3.10;;;30.40;79.10;;;;;;5007912;28;20471;-89
2022/08/02 11:25:38;;;;;;;5.60;3.60;;;30.20;79.20;;;;;;4999632;28;20564;-89
2022/08/02 11:28:13;;;;;;;3.30;3.00;;;30.40;79.10;;;;;;4957165;28;20461;-92
2022/08/02 11:30:39;;;;;;;3.30;3.00;;;30.40;79.10;;;;;;5008715;28;20559;-89
2022/08/02 11:33:05;;;;;;;3.07;2.87;;;30.40;79.30;;;;;;5014947;28;20514;-92
2022/08/02 11:35:40;;;;;;;2.93;2.73;;;30.50;78.90;;;;;;5013896;28;20522;-91
2022/08/02 11:38:19;;;;;;;3.50;3.20;;;30.50;79.10;;;;;;5032564;28;20934;-94
2022/08/02 11:40:47;;;;;;;3.27;3.07;;;30.50;79.30;;;;;;5014320;28;20954;-93
2022/08/02 11:43:21;;;;;;;4.77;3.60;;;30.50;78.40;;;;;;5015443;28;20562;-90
2022/08/02 11:45:52;;;;;;;3.73;3.43;;;30.60;78.70;;;;;;5024267;28;20436;-93
2022/08/02 11:48:36;;;;;;;7.87;3.77;;;30.50;79.10;;;;;;5019580;28;20445;-92
2022/08/02 11:51:02;;;;;;;3.17;2.97;;;30.50;79.10;;;;;;5021223;28;20437;-94
2022/08/02 11:53:32;;;;;;;3.97;3.17;;;30.60;78.80;;;;;;5013534;28;20438;-93
2022/08/02 11:55:58;;;;;;;4.23;2.70;;;30.70;78.50;;;;;;5023460;28;20423;-92
2022/08/02 11:58:24;;;;;;;3.67;3.00;;;30.70;78.80;;;;;;5032486;28;20427;-92
2022/08/02 12:00:52;;;;;;;3.70;3.00;;;30.70;78.30;;;;;;5032502;28;20209;-93
2022/08/02 12:03:17;;;;;;;3.30;3.00;;;30.70;77.60;;;;;;5020773;28;20263;-93
2022/08/02 12:05:48;;;;;;;3.17;2.97;;;30.80;78.00;;;;;;5012224;28;20425;-91
2022/08/02 12:08:14;;;;;;;3.07;2.87;;;30.80;78.70;;;;;;5014898;28;20237;-91
2022/08/02 12:10:48;;;;;;;3.23;2.80;;;30.80;78.80;;;;;;5014221;28;21013;-92
2022/08/02 12:13:14;;;;;;;3.20;2.90;;;30.80;77.80;;;;;;5020089;28;20293;-92
2022/08/02 12:15:45;;;;;;;3.37;3.07;;;30.90;78.20;;;;;;5023182;28;20431;-94
2022/08/02 12:21:03;;;;;;;3.13;2.90;;;31.00;77.90;;;;;;5035747;28;20442;-94
2022/08/02 12:23:29;;;;;;;4.33;3.50;;;31.00;78.10;;;;;;5018035;28;20557;-92
2022/08/02 12:26:20;;;;;;;3.60;3.30;;;31.10;78.10;;;;;;5019182;28;20445;-93
2022/08/02 12:29:04;;;;;;;3.83;3.43;;;31.10;78.30;;;;;;5039486;28;20522;-92
2022/08/02 12:31:40;;;;;;;4.57;3.60;;;31.10;77.70;;;;;;5020121;28;20469;-94
2022/08/02 12:34:17;;;;;;;3.50;3.20;;;31.10;77.90;;;;;;5035874;28;20969;-93
2022/08/02 12:37:07;;;;;;;3.30;3.00;;;31.10;77.60;;;;;;5016873;28;20438;-91
2022/08/02 12:39:43;;;;;;;3.10;2.90;;;31.10;78.10;;;;;;5012929;28;20490;-91
2022/08/02 12:42:22;;;;;;;3.00;2.80;;;31.00;78.20;;;;;;5008555;28;20443;-94
2022/08/02 12:44:59;;;;;;;3.07;2.77;;;30.90;78.60;;;;;;5015797;28;20701;-93
2022/08/02 12:47:25;;;;;;;3.20;3.00;;;31.00;77.50;;;;;;5014165;28;20463;-92
2022/08/02 12:50:12;;;;;;;2.97;2.77;;;31.00;78.00;;;;;;5016777;28;20424;-93
2022/08/02 12:52:37;;;;;;;3.40;3.20;;;31.10;77.30;;;;;;5019799;28;20490;-92
2022/08/02 12:55:27;;;;;;;3.10;2.90;;;31.20;77.00;;;;;;4995411;28;20929;-93
2022/08/02 12:58:04;;;;;;;3.23;3.03;;;31.20;76.30;;;;;;5006117;28;20214;-93
2022/08/02 13:00:32;;;;;;;2.80;2.60;;;31.40;76.70;;;;;;5013113;28;20443;-93
2022/08/02 13:02:58;;;;;;;3.40;3.10;;;31.30;77.30;;;;;;5016812;28;20471;-93
2022/08/02 13:05:26;;;;;;;3.20;2.90;;;31.40;76.60;;;;;;5017696;28;20440;-91
2022/08/02 13:07:52;;;;;;;3.03;2.70;;;31.30;76.90;;;;;;5014073;28;20440;-92